Time;durP1;ratioP1;P1;durP2;ratioP2;P2;SDS_P1;SDS_P2;PMS_P1;PMS_P2;Temp;Humidity;BMP_temperature;BMP_pressure;BME280_temperature;BME280_humidity;BME280_pressure;Samples;Min_cycle;Max_cycle;Signal;HPM_P1;HPM_P2
2023/01/07 00:01:25;;;;;;;30.05;19.98;;;8.40;99.90;;;;;;5083534;28;20218;-81
2023/01/07 00:03:53;;;;;;;27.65;18.17;;;8.50;99.90;;;;;;5080660;28;20257;-81
2023/01/07 00:06:24;;;;;;;27.58;19.48;;;8.60;99.90;;;;;;5069233;28;20238;-81
2023/01/07 00:08:52;;;;;;;26.40;19.25;;;8.80;99.90;;;;;;5071390;28;20222;-81
2023/01/07 00:11:21;;;;;;;29.30;18.63;;;8.90;99.90;;;;;;5071710;28;20200;-81
2023/01/07 00:13:49;;;;;;;30.55;20.88;;;8.90;99.90;;;;;;5066938;28;20247;-80
2023/01/07 00:16:18;;;;;;;29.33;18.58;;;8.90;99.90;;;;;;5076094;28;20505;-81
2023/01/07 00:18:47;;;;;;;31.38;21.55;;;9.00;99.90;;;;;;5080627;28;20191;-80
2023/01/07 00:21:17;;;;;;;31.95;21.27;;;9.10;99.90;;;;;;5080889;28;20220;-81
2023/01/07 00:23:45;;;;;;;27.45;19.85;;;9.10;99.90;;;;;;5083495;28;20218;-81
2023/01/07 00:26:14;;;;;;;34.80;21.20;;;9.20;99.90;;;;;;5082624;28;20238;-80
2023/01/07 00:28:43;;;;;;;31.63;20.85;;;9.40;99.90;;;;;;5077775;28;20218;-81
2023/01/07 00:31:11;;;;;;;32.83;23.10;;;9.40;99.90;;;;;;5073774;28;20272;-80
2023/01/07 00:33:46;;;;;;;33.05;21.48;;;9.50;99.90;;;;;;5074001;28;20679;-80
2023/01/07 00:36:14;;;;;;;32.08;22.05;;;9.60;99.90;;;;;;5073285;28;20240;-80
2023/01/07 00:38:41;;;;;;;35.13;23.80;;;9.60;99.90;;;;;;5075001;28;20235;-80
2023/01/07 00:41:09;;;;;;;36.88;24.95;;;9.60;99.90;;;;;;5081444;28;20201;-80
2023/01/07 00:43:36;;;;;;;30.52;22.40;;;9.60;99.90;;;;;;5070739;28;20289;-80
2023/01/07 00:46:03;;;;;;;37.33;24.38;;;9.60;99.90;;;;;;5075435;28;20217;-80
2023/01/07 00:48:30;;;;;;;38.25;24.70;;;9.60;99.90;;;;;;5074439;28;20235;-80
2023/01/07 00:50:57;;;;;;;48.05;26.15;;;9.50;99.90;;;;;;5079408;28;20214;-81
2023/01/07 00:53:28;;;;;;;37.25;25.25;;;9.60;99.90;;;;;;5081213;28;20198;-81
2023/01/07 00:55:55;;;;;;;32.20;23.33;;;9.60;99.90;;;;;;5077458;28;20213;-81
2023/01/07 00:58:24;;;;;;;38.22;26.75;;;9.70;99.90;;;;;;5071053;28;20671;-80
2023/01/07 01:00:54;;;;;;;37.03;25.38;;;9.80;99.90;;;;;;5075135;28;20248;-81
2023/01/07 01:03:21;;;;;;;43.33;30.67;;;9.90;99.90;;;;;;5076172;28;20240;-81
2023/01/07 01:05:48;;;;;;;45.70;31.70;;;10.00;99.90;;;;;;5076766;28;20202;-81
2023/01/07 01:08:16;;;;;;;41.00;27.48;;;10.00;99.90;;;;;;5073421;28;20580;-81
2023/01/07 01:10:45;;;;;;;43.50;30.63;;;10.00;99.90;;;;;;5070549;28;20201;-80
2023/01/07 01:13:14;;;;;;;46.40;30.30;;;10.00;99.90;;;;;;5066794;28;20280;-80
2023/01/07 01:15:42;;;;;;;41.83;29.40;;;10.10;99.90;;;;;;5069677;28;20272;-81
2023/01/07 01:18:09;;;;;;;44.47;28.95;;;10.20;99.90;;;;;;5059318;28;20312;-81
2023/01/07 01:20:36;;;;;;;44.50;30.13;;;10.10;99.90;;;;;;5052497;28;20701;-81
2023/01/07 01:23:05;;;;;;;43.25;30.65;;;10.30;99.90;;;;;;5067673;28;20210;-81
2023/01/07 01:25:32;;;;;;;42.28;31.73;;;10.20;99.90;;;;;;5058269;28;20263;-81
2023/01/07 01:28:01;;;;;;;39.95;29.50;;;10.20;99.90;;;;;;5063784;28;20241;-80
2023/01/07 01:30:27;;;;;;;45.22;29.27;;;10.30;99.90;;;;;;5053024;28;20753;-81
2023/01/07 01:32:54;;;;;;;42.03;31.30;;;10.30;99.90;;;;;;5054455;28;20204;-81
2023/01/07 01:35:21;;;;;;;55.35;33.22;;;10.30;99.90;;;;;;5064594;28;20334;-81
2023/01/07 01:37:48;;;;;;;45.78;30.50;;;10.20;99.90;;;;;;5058765;28;20271;-81
2023/01/07 01:40:15;;;;;;;46.53;31.10;;;10.20;99.90;;;;;;5057833;28;20232;-81
2023/01/07 01:42:42;;;;;;;49.03;31.95;;;10.20;99.90;;;;;;5052967;28;20205;-81
2023/01/07 01:45:12;;;;;;;44.45;30.83;;;10.20;99.90;;;;;;5046483;28;20315;-80
2023/01/07 01:47:43;;;;;;;38.75;29.10;;;10.20;99.90;;;;;;5063125;28;20608;-80
2023/01/07 01:50:17;;;;;;;38.78;29.08;;;10.20;99.90;;;;;;5052688;28;20225;-80
2023/01/07 01:52:48;;;;;;;42.17;28.98;;;10.30;99.90;;;;;;5064978;28;20204;-81
2023/01/07 01:55:19;;;;;;;40.03;29.30;;;10.30;99.90;;;;;;5056642;28;20236;-80
2023/01/07 01:57:48;;;;;;;45.85;31.98;;;10.50;99.90;;;;;;5056214;28;20214;-81
2023/01/07 02:00:17;;;;;;;39.95;28.05;;;10.40;99.90;;;;;;5056974;28;20301;-81
2023/01/07 02:02:47;;;;;;;39.03;29.30;;;10.50;99.90;;;;;;5065191;28;20697;-81
2023/01/07 02:05:15;;;;;;;42.00;29.80;;;10.60;99.90;;;;;;5074736;28;20308;-81
2023/01/07 02:07:42;;;;;;;46.40;29.48;;;10.60;99.90;;;;;;5069169;28;20255;-80
2023/01/07 02:10:18;;;;;;;43.17;29.60;;;10.60;99.90;;;;;;5060135;28;20236;-81
2023/01/07 02:12:56;;;;;;;39.60;31.10;;;10.60;99.90;;;;;;5056842;28;20259;-81
2023/01/07 02:15:33;;;;;;;41.72;30.13;;;10.60;99.90;;;;;;5054620;28;20229;-81
2023/01/07 02:18:11;;;;;;;44.47;30.40;;;10.70;99.90;;;;;;5054416;28;20309;-81
2023/01/07 02:20:57;;;;;;;46.53;30.60;;;10.70;99.90;;;;;;5047093;28;20270;-81
2023/01/07 02:24:08;;;;;;;40.05;28.35;;;10.70;99.90;;;;;;5058521;28;20413;-81
2023/01/07 02:27:06;;;;;;;41.78;29.75;;;10.80;99.90;;;;;;5064739;28;20194;-82
2023/01/07 02:30:00;;;;;;;43.90;31.20;;;10.80;99.90;;;;;;5070851;28;20212;-81
2023/01/07 02:32:56;;;;;;;35.55;27.10;;;10.80;99.90;;;;;;5050615;28;20241;-81
2023/01/07 02:35:35;;;;;;;35.40;28.40;;;10.90;99.90;;;;;;5063362;28;20289;-81
2023/01/07 02:38:08;;;;;;;41.20;27.80;;;10.90;99.90;;;;;;5057831;28;20251;-81
2023/01/07 02:40:44;;;;;;;40.25;29.88;;;11.00;99.90;;;;;;5054583;28;20285;-81
2023/01/07 02:43:18;;;;;;;36.88;28.42;;;10.90;99.90;;;;;;5059400;28;20308;-81
2023/01/07 02:45:49;;;;;;;43.40;31.85;;;10.80;99.90;;;;;;5067224;28;20650;-81
2023/01/07 02:48:20;;;;;;;40.85;28.63;;;10.90;99.90;;;;;;5065026;28;20267;-81
2023/01/07 02:50:47;;;;;;;34.55;26.48;;;10.90;99.90;;;;;;5051817;28;20296;-80
2023/01/07 02:53:19;;;;;;;36.00;28.27;;;10.90;99.90;;;;;;5061085;28;20221;-81
2023/01/07 02:55:59;;;;;;;33.70;26.75;;;10.90;99.90;;;;;;5059746;28;20294;-81
2023/01/07 02:59:02;;;;;;;38.92;27.27;;;11.00;99.90;;;;;;5069582;28;20307;-81
2023/01/07 03:02:05;;;;;;;37.85;27.77;;;10.90;99.90;;;;;;5057228;28;20596;-81
2023/01/07 03:04:46;;;;;;;35.38;25.42;;;10.90;99.90;;;;;;5059690;28;20217;-81
2023/01/07 03:07:31;;;;;;;31.27;24.60;;;10.80;99.90;;;;;;5058134;28;20714;-81
2023/01/07 03:10:05;;;;;;;35.58;25.40;;;10.90;99.90;;;;;;5059696;28;20203;-81
2023/01/07 03:12:37;;;;;;;33.50;25.42;;;11.00;99.90;;;;;;5067037;28;20202;-81
2023/01/07 03:15:11;;;;;;;37.10;25.45;;;11.00;99.90;;;;;;5070893;28;20605;-81
2023/01/07 03:17:42;;;;;;;35.42;26.83;;;10.80;99.90;;;;;;5067027;28;20233;-80
2023/01/07 03:20:13;;;;;;;34.80;26.35;;;11.00;99.90;;;;;;5067128;28;20501;-80
2023/01/07 03:22:42;;;;;;;35.45;28.20;;;11.00;99.90;;;;;;5062454;28;20204;-80
2023/01/07 03:25:11;;;;;;;35.60;25.15;;;11.00;99.90;;;;;;5059580;28;20228;-80
2023/01/07 03:27:40;;;;;;;29.42;24.02;;;11.00;99.90;;;;;;5061641;28;20210;-81
2023/01/07 03:30:11;;;;;;;38.15;27.58;;;11.10;99.90;;;;;;5057183;28;20476;-80
2023/01/07 03:32:41;;;;;;;36.17;27.17;;;11.10;99.90;;;;;;5063245;28;20286;-80
2023/01/07 03:35:09;;;;;;;28.98;25.20;;;11.10;99.90;;;;;;5058562;28;20225;-82
2023/01/07 03:37:41;;;;;;;33.90;25.70;;;11.10;99.90;;;;;;5058506;28;20219;-80
2023/01/07 03:40:10;;;;;;;33.60;26.10;;;11.20;99.90;;;;;;5071579;28;20212;-81
2023/01/07 03:42:39;;;;;;;35.55;26.15;;;11.20;99.90;;;;;;5059840;28;20268;-81
2023/01/07 03:45:08;;;;;;;30.88;24.55;;;11.20;99.90;;;;;;5068824;28;20646;-80
2023/01/07 03:47:36;;;;;;;32.80;27.40;;;11.20;99.90;;;;;;5057476;28;20205;-81
2023/01/07 03:50:04;;;;;;;37.08;28.15;;;11.20;99.90;;;;;;5062923;28;20204;-81
2023/01/07 03:52:31;;;;;;;39.78;28.23;;;11.20;99.90;;;;;;5062344;28;20281;-81
2023/01/07 03:54:59;;;;;;;39.85;26.77;;;11.20;99.90;;;;;;5055812;28;20331;-80
2023/01/07 03:57:26;;;;;;;33.05;25.80;;;11.20;99.90;;;;;;5068686;28;20228;-81
2023/01/07 03:59:53;;;;;;;37.88;27.40;;;11.20;99.90;;;;;;5059300;28;20210;-81
2023/01/07 04:02:19;;;;;;;39.55;27.70;;;11.20;99.90;;;;;;5062123;28;20207;-82
2023/01/07 04:04:46;;;;;;;37.00;29.20;;;11.10;99.90;;;;;;5066446;28;20667;-81
2023/01/07 04:07:13;;;;;;;34.22;28.52;;;11.10;99.90;;;;;;5061492;28;20713;-80
2023/01/07 04:09:40;;;;;;;34.10;27.40;;;11.10;99.90;;;;;;5063186;28;20276;-81
2023/01/07 04:12:08;;;;;;;34.88;27.17;;;11.20;99.90;;;;;;5069209;28;20241;-80
2023/01/07 04:14:36;;;;;;;30.80;25.38;;;11.30;99.90;;;;;;5065754;28;20229;-80
2023/01/07 04:17:03;;;;;;;32.65;24.17;;;11.30;99.90;;;;;;5069243;28;20193;-82
2023/01/07 04:19:31;;;;;;;38.20;28.17;;;11.30;99.90;;;;;;5069583;28;20236;-80
2023/01/07 04:21:57;;;;;;;35.22;27.33;;;11.30;99.90;;;;;;5067084;28;20210;-80
2023/01/07 04:24:24;;;;;;;36.95;26.13;;;11.30;99.90;;;;;;5083022;28;20229;-81
2023/01/07 04:26:51;;;;;;;35.70;27.70;;;11.20;99.90;;;;;;5059007;28;20206;-82
2023/01/07 04:29:19;;;;;;;34.30;27.45;;;11.20;99.90;;;;;;5069222;28;20289;-81
2023/01/07 04:31:46;;;;;;;42.33;28.15;;;11.30;99.90;;;;;;5058378;28;20275;-79
2023/01/07 04:34:13;;;;;;;34.95;29.20;;;11.20;99.90;;;;;;5067112;28;20650;-81
2023/01/07 04:36:40;;;;;;;38.33;29.40;;;11.30;99.90;;;;;;5071863;28;20202;-80
2023/01/07 04:39:07;;;;;;;35.22;28.25;;;11.30;99.90;;;;;;5060186;28;20256;-82
2023/01/07 04:41:34;;;;;;;42.25;31.08;;;11.20;99.90;;;;;;5078204;28;20231;-80
2023/01/07 04:44:01;;;;;;;40.58;28.35;;;11.20;99.90;;;;;;5061131;28;20232;-80
2023/01/07 04:46:29;;;;;;;36.33;29.65;;;11.30;99.90;;;;;;5077175;28;20272;-80
2023/01/07 04:48:56;;;;;;;39.42;30.73;;;11.20;99.90;;;;;;5074980;28;20226;-80
2023/01/07 04:51:23;;;;;;;38.55;29.02;;;11.20;99.90;;;;;;5076707;28;20190;-81
2023/01/07 04:53:50;;;;;;;33.08;27.75;;;11.30;99.90;;;;;;5072478;28;20257;-81
2023/01/07 04:56:16;;;;;;;31.33;27.58;;;11.30;99.90;;;;;;5078247;28;20266;-80
2023/01/07 04:58:43;;;;;;;43.10;29.15;;;11.30;99.90;;;;;;5068166;28;20244;-80
2023/01/07 05:01:11;;;;;;;33.63;26.35;;;11.30;99.90;;;;;;5069584;28;20211;-80
2023/01/07 05:03:39;;;;;;;33.92;26.80;;;11.30;99.90;;;;;;5084073;28;20227;-80
2023/01/07 05:06:08;;;;;;;37.92;29.13;;;11.30;99.90;;;;;;5067097;28;20207;-80
2023/01/07 05:08:35;;;;;;;34.47;26.75;;;11.30;99.90;;;;;;5069128;28;20200;-79
2023/01/07 05:11:03;;;;;;;39.65;29.67;;;11.40;99.90;;;;;;5059841;28;20208;-81
2023/01/07 05:13:31;;;;;;;35.58;28.98;;;11.40;99.90;;;;;;5056580;28;20293;-80
2023/01/07 05:15:57;;;;;;;34.75;28.60;;;11.40;99.90;;;;;;5062830;28;20532;-80
2023/01/07 05:18:24;;;;;;;35.95;29.73;;;11.40;99.90;;;;;;5048586;28;20761;-81
2023/01/07 05:20:53;;;;;;;35.97;29.50;;;11.40;99.90;;;;;;5057804;28;20707;-81
2023/01/07 05:23:19;;;;;;;32.47;27.60;;;11.40;99.90;;;;;;5070431;28;20207;-81
2023/01/07 05:25:46;;;;;;;33.00;27.33;;;11.40;99.90;;;;;;5078264;28;20273;-81
2023/01/07 05:28:13;;;;;;;35.40;28.30;;;11.40;99.90;;;;;;5070303;28;20266;-82
2023/01/07 05:30:40;;;;;;;34.92;28.88;;;11.40;99.90;;;;;;5079185;28;20230;-81
2023/01/07 05:33:07;;;;;;;35.00;29.17;;;11.40;99.90;;;;;;5080164;28;20208;-80
2023/01/07 05:35:34;;;;;;;31.90;26.95;;;11.40;99.90;;;;;;5069306;28;20224;-82
2023/01/07 05:38:03;;;;;;;33.03;28.33;;;11.50;99.90;;;;;;5066349;28;20225;-82
2023/01/07 05:40:30;;;;;;;32.30;27.75;;;11.50;99.90;;;;;;5059207;28;20301;-82
2023/01/07 05:42:57;;;;;;;29.98;26.77;;;11.50;99.90;;;;;;5056456;28;20209;-82
2023/01/07 05:45:24;;;;;;;31.92;26.25;;;11.50;99.90;;;;;;5062412;28;20308;-83
2023/01/07 05:47:51;;;;;;;31.73;27.42;;;11.50;99.90;;;;;;5064292;28;20229;-83
2023/01/07 05:50:18;;;;;;;30.33;25.75;;;11.50;99.90;;;;;;5055944;28;20202;-82
2023/01/07 05:52:44;;;;;;;29.55;24.77;;;11.50;99.90;;;;;;5054244;28;20264;-82
2023/01/07 05:55:12;;;;;;;31.00;26.85;;;11.50;99.90;;;;;;5115061;22;20256;-83
2023/01/07 05:57:39;;;;;;;32.72;26.10;;;11.50;99.90;;;;;;5093005;28;20202;-83
2023/01/07 06:00:09;;;;;;;31.73;27.67;;;11.50;99.90;;;;;;5103141;28;20320;-82
2023/01/07 06:02:36;;;;;;;26.73;23.88;;;11.50;99.90;;;;;;5102677;28;20205;-83
2023/01/07 06:05:03;;;;;;;32.13;25.48;;;11.50;99.90;;;;;;5083233;28;20229;-83
2023/01/07 06:07:29;;;;;;;29.35;25.15;;;11.50;99.90;;;;;;5085190;28;20673;-83
2023/01/07 06:09:56;;;;;;;31.90;25.25;;;11.50;99.90;;;;;;5087337;28;20236;-82
2023/01/07 06:12:24;;;;;;;30.02;25.67;;;11.50;99.90;;;;;;5082315;28;20265;-83
2023/01/07 06:14:51;;;;;;;32.95;25.05;;;11.50;99.90;;;;;;5090797;28;20290;-81
2023/01/07 06:17:18;;;;;;;29.27;25.50;;;11.50;99.90;;;;;;5091307;28;20190;-82
2023/01/07 06:19:46;;;;;;;30.00;25.20;;;11.50;99.90;;;;;;5076519;28;20232;-83
2023/01/07 06:22:14;;;;;;;29.08;23.15;;;11.50;99.90;;;;;;5084471;28;20231;-83
2023/01/07 06:24:40;;;;;;;33.70;26.20;;;11.60;99.90;;;;;;5084343;28;20292;-81
2023/01/07 06:27:09;;;;;;;28.48;23.95;;;11.70;99.90;;;;;;5098023;28;20263;-83
2023/01/07 06:29:37;;;;;;;25.15;22.35;;;11.70;99.90;;;;;;5103279;28;20268;-85
2023/01/07 06:32:04;;;;;;;27.60;23.35;;;11.70;99.90;;;;;;5082671;28;20273;-84
2023/01/07 06:34:31;;;;;;;28.63;22.33;;;11.70;99.90;;;;;;5098364;28;20217;-80
2023/01/07 06:36:58;;;;;;;23.85;21.30;;;11.70;99.90;;;;;;5093321;28;20235;-83
2023/01/07 06:39:26;;;;;;;22.85;19.55;;;11.80;99.90;;;;;;5086358;28;20229;-83
2023/01/07 06:41:53;;;;;;;24.70;21.45;;;11.80;99.90;;;;;;5091494;28;20370;-81
2023/01/07 06:44:20;;;;;;;21.77;19.48;;;11.80;99.90;;;;;;5106700;28;20229;-81
2023/01/07 06:46:48;;;;;;;25.58;22.00;;;11.80;99.90;;;;;;5098924;28;20263;-81
2023/01/07 06:49:15;;;;;;;24.50;21.90;;;11.80;99.90;;;;;;5090184;28;20198;-84
2023/01/07 06:51:41;;;;;;;24.77;21.65;;;11.80;99.90;;;;;;5088361;28;20281;-83
2023/01/07 06:54:08;;;;;;;21.95;19.60;;;11.90;99.90;;;;;;5084445;28;20214;-83
2023/01/07 06:56:35;;;;;;;20.60;18.52;;;11.80;99.90;;;;;;5096166;28;20221;-83
2023/01/07 06:59:02;;;;;;;22.23;19.83;;;12.00;99.90;;;;;;5098692;28;20222;-82
2023/01/07 07:01:29;;;;;;;23.98;19.60;;;11.90;99.90;;;;;;5096051;28;20226;-83
2023/01/07 07:03:57;;;;;;;20.73;18.50;;;11.80;99.90;;;;;;5093727;28;20311;-82
2023/01/07 07:06:24;;;;;;;20.90;18.58;;;11.90;99.90;;;;;;5083493;28;20363;-84
2023/01/07 07:08:56;;;;;;;25.10;20.90;;;11.90;99.90;;;;;;5091173;28;20230;-82
2023/01/07 07:11:22;;;;;;;24.63;20.48;;;11.90;99.90;;;;;;5089283;28;20209;-84
2023/01/07 07:13:49;;;;;;;26.65;19.35;;;11.90;99.90;;;;;;5089612;28;20202;-83
2023/01/07 07:16:25;;;;;;;20.58;18.33;;;11.90;99.90;;;;;;5088889;28;20228;-83
2023/01/07 07:18:53;;;;;;;22.60;19.75;;;12.00;99.90;;;;;;5084402;28;20226;-86
2023/01/07 07:21:21;;;;;;;22.90;18.58;;;11.90;99.90;;;;;;5079582;28;20198;-84
2023/01/07 07:23:48;;;;;;;25.35;19.25;;;12.00;99.90;;;;;;5080095;28;20626;-84
2023/01/07 07:26:16;;;;;;;25.20;20.17;;;11.90;99.90;;;;;;5076975;28;20207;-84
2023/01/07 07:28:43;;;;;;;27.77;17.98;;;11.80;99.90;;;;;;5088714;28;20201;-84
2023/01/07 07:31:10;;;;;;;25.58;18.42;;;11.70;99.90;;;;;;5078858;28;20198;-84
2023/01/07 07:33:37;;;;;;;24.95;18.77;;;11.60;99.90;;;;;;5086509;28;20299;-86
2023/01/07 07:36:05;;;;;;;25.27;20.25;;;11.60;99.90;;;;;;5079526;28;20202;-85
2023/01/07 07:38:38;;;;;;;20.10;18.00;;;11.60;99.90;;;;;;5067778;28;20305;-86
2023/01/07 07:41:05;;;;;;;22.42;16.90;;;11.70;99.90;;;;;;5079436;28;20206;-85
2023/01/07 07:43:44;;;;;;;20.65;18.35;;;11.80;99.90;;;;;;5075617;28;20202;-85
2023/01/07 07:46:40;;;;;;;22.52;19.02;;;11.70;99.90;;;;;;5086601;28;20276;-85
2023/01/07 07:49:14;;;;;;;20.60;17.88;;;11.50;99.90;;;;;;5084310;28;20201;-84
2023/01/07 07:54:52;;;;;;;19.75;16.92;;;11.50;99.90;;;;;;5055215;28;20218;-83
2023/01/07 07:57:25;;;;;;;19.05;17.08;;;11.40;99.90;;;;;;5086083;28;20217;-83
2023/01/07 08:00:05;;;;;;;17.38;15.52;;;11.50;99.90;;;;;;5087872;28;20585;-84
2023/01/07 08:02:32;;;;;;;18.58;16.05;;;11.40;99.90;;;;;;5108919;22;20210;-82
2023/01/07 08:04:59;;;;;;;20.10;15.90;;;11.50;99.90;;;;;;5089438;28;20264;-80
2023/01/07 08:07:26;;;;;;;18.23;15.98;;;11.50;99.90;;;;;;5093959;28;20287;-78
2023/01/07 08:09:54;;;;;;;16.17;14.35;;;11.60;99.90;;;;;;5083981;28;20308;-77
2023/01/07 08:12:21;;;;;;;18.85;15.55;;;11.60;99.90;;;;;;5086812;28;20253;-78
2023/01/07 08:14:48;;;;;;;15.98;14.30;;;11.60;99.90;;;;;;5074819;28;20208;-76
2023/01/07 08:17:15;;;;;;;18.27;14.75;;;11.60;99.90;;;;;;5074547;28;21729;-78
2023/01/07 08:19:42;;;;;;;18.00;12.27;;;11.70;99.90;;;;;;5073395;28;20217;-78
2023/01/07 08:22:09;;;;;;;17.38;12.93;;;11.70;99.90;;;;;;5069562;28;20303;-79
2023/01/07 08:24:36;;;;;;;16.25;14.05;;;11.70;99.90;;;;;;5067139;28;20234;-80
2023/01/07 08:27:04;;;;;;;15.25;13.52;;;11.70;99.90;;;;;;5074960;28;20195;-79
2023/01/07 08:29:31;;;;;;;13.40;12.00;;;11.80;99.90;;;;;;5069139;28;20190;-79
2023/01/07 08:31:58;;;;;;;13.35;11.07;;;12.00;99.90;;;;;;5076518;28;20221;-79
2023/01/07 08:34:25;;;;;;;10.50;9.18;;;12.10;99.90;;;;;;5075748;28;20209;-81
2023/01/07 08:36:52;;;;;;;11.57;10.07;;;12.40;99.90;;;;;;5070320;28;20202;-80
2023/01/07 08:39:20;;;;;;;11.75;10.65;;;12.70;99.90;;;;;;5063878;28;20326;-79
2023/01/07 08:41:47;;;;;;;11.63;9.73;;;12.80;99.90;;;;;;5061256;28;20294;-78
2023/01/07 08:44:15;;;;;;;11.80;9.57;;;12.90;99.90;;;;;;5073828;28;20209;-78
2023/01/07 08:46:42;;;;;;;11.43;9.25;;;13.10;99.90;;;;;;5070972;28;20287;-81
2023/01/07 08:49:10;;;;;;;9.95;8.93;;;13.20;99.90;;;;;;5067246;28;20208;-82
2023/01/07 08:51:37;;;;;;;11.27;8.95;;;13.00;99.90;;;;;;5063355;28;20239;-78
2023/01/07 08:54:04;;;;;;;13.40;8.98;;;12.80;99.90;;;;;;5073768;28;20574;-81
2023/01/07 08:56:33;;;;;;;8.10;7.03;;;12.80;99.90;;;;;;5081185;28;20225;-77
2023/01/07 08:59:00;;;;;;;7.35;6.65;;;12.90;99.90;;;;;;5073835;28;20306;-80
2023/01/07 09:01:30;;;;;;;7.32;5.50;;;12.80;99.90;;;;;;5073887;28;20200;-80
2023/01/07 09:04:01;;;;;;;9.45;5.95;;;12.80;99.90;;;;;;5077528;28;20215;-79
2023/01/07 09:06:27;;;;;;;8.05;5.13;;;13.00;99.90;;;;;;5073865;28;20734;-77
2023/01/07 09:08:55;;;;;;;6.47;5.00;;;13.50;99.90;;;;;;5068147;28;20286;-81
2023/01/07 09:11:22;;;;;;;6.32;4.53;;;13.80;99.90;;;;;;5075509;28;20246;-79
2023/01/07 09:13:49;;;;;;;4.95;4.43;;;13.60;99.90;;;;;;5068773;28;20298;-79
2023/01/07 09:16:16;;;;;;;4.43;4.03;;;13.70;99.90;;;;;;5071943;28;20245;-82
2023/01/07 09:18:44;;;;;;;9.75;4.70;;;13.60;99.90;;;;;;5074903;28;20235;-82
2023/01/07 09:21:11;;;;;;;4.10;3.70;;;13.70;99.90;;;;;;5074221;28;20578;-80
2023/01/07 09:23:39;;;;;;;3.40;3.10;;;13.70;99.90;;;;;;5071940;28;20224;-80
2023/01/07 09:26:06;;;;;;;4.20;3.63;;;13.70;99.90;;;;;;5071717;28;20683;-81
2023/01/07 09:28:33;;;;;;;4.13;3.70;;;13.40;99.90;;;;;;5073150;28;20218;-77
2023/01/07 09:31:03;;;;;;;4.53;2.75;;;13.30;99.90;;;;;;5075647;28;20199;-82
2023/01/07 09:33:30;;;;;;;3.90;3.60;;;13.30;99.90;;;;;;5076121;28;20262;-79
2023/01/07 09:35:59;;;;;;;4.45;3.30;;;13.50;99.90;;;;;;5080123;28;20202;-82
2023/01/07 09:38:27;;;;;;;3.88;3.47;;;13.50;99.90;;;;;;5077894;28;20206;-79
2023/01/07 09:40:55;;;;;;;5.03;3.65;;;13.40;99.90;;;;;;5077542;28;20269;-82
2023/01/07 09:43:28;;;;;;;4.18;2.58;;;13.70;99.90;;;;;;5077912;28;20286;-81
2023/01/07 09:45:58;;;;;;;2.27;2.07;;;14.80;99.90;;;;;;5068581;28;20214;-81
2023/01/07 09:48:31;;;;;;;3.43;2.33;;;15.80;99.90;;;;;;5073002;28;20499;-82
2023/01/07 09:51:04;;;;;;;7.23;2.50;;;16.00;99.90;;;;;;5077083;28;20441;-82
2023/01/07 09:53:45;;;;;;;2.67;2.20;;;15.70;99.90;;;;;;5074116;28;20465;-79
2023/01/07 09:56:21;;;;;;;4.50;1.90;;;15.60;99.90;;;;;;5064412;28;20504;-82
2023/01/07 09:58:50;;;;;;;6.43;2.43;;;15.40;99.90;;;;;;5072580;28;20930;-82
2023/01/07 10:01:24;;;;;;;2.60;2.23;;;14.90;99.90;;;;;;5073526;28;20578;-79
2023/01/07 10:04:05;;;;;;;2.58;2.38;;;14.70;99.90;;;;;;5067115;28;20482;-79
2023/01/07 10:06:47;;;;;;;3.58;2.58;;;14.10;99.90;;;;;;5068144;28;20210;-83
2023/01/07 10:09:30;;;;;;;3.58;2.28;;;13.60;99.90;;;;;;5062021;28;20245;-80
2023/01/07 10:12:12;;;;;;;2.13;1.85;;;13.50;99.90;;;;;;5074842;28;20224;-83
2023/01/07 10:15:04;;;;;;;2.97;2.70;;;13.30;99.90;;;;;;5075204;28;20199;-80
2023/01/07 10:17:45;;;;;;;4.82;3.47;;;13.10;99.90;;;;;;5074945;28;20203;-81
2023/01/07 10:20:24;;;;;;;3.70;3.30;;;12.80;99.90;;;;;;5069521;28;20222;-82
2023/01/07 10:22:57;;;;;;;2.63;2.17;;;12.60;99.90;;;;;;5055212;28;20310;-81
2023/01/07 10:25:32;;;;;;;4.18;2.80;;;12.50;99.90;;;;;;5075651;28;20199;-79
2023/01/07 10:28:06;;;;;;;3.67;2.80;;;12.30;99.90;;;;;;5070929;28;20233;-80
2023/01/07 10:30:40;;;;;;;3.15;2.35;;;12.20;99.90;;;;;;5080882;28;20267;-81
2023/01/07 10:33:18;;;;;;;3.55;3.15;;;12.30;99.90;;;;;;5080546;28;20241;-78
2023/01/07 10:35:48;;;;;;;3.63;2.83;;;12.50;99.90;;;;;;5057652;28;20201;-83
2023/01/07 10:38:20;;;;;;;6.72;3.28;;;12.50;99.90;;;;;;5074760;28;20203;-82
2023/01/07 10:40:53;;;;;;;3.90;2.92;;;12.50;99.90;;;;;;5075982;28;20269;-81
2023/01/07 10:43:31;;;;;;;3.88;2.50;;;12.60;99.90;;;;;;5076787;28;20233;-80
2023/01/07 10:46:22;;;;;;;3.03;2.72;;;12.70;99.90;;;;;;5080237;28;20230;-79
2023/01/07 10:49:08;;;;;;;4.78;2.58;;;12.60;99.90;;;;;;5083095;28;20249;-80
2023/01/07 10:52:21;;;;;;;2.35;2.15;;;12.70;99.90;;;;;;5071420;28;20187;-80
2023/01/07 10:55:13;;;;;;;5.55;2.45;;;12.80;99.90;;;;;;5068625;28;20210;-80
2023/01/07 10:57:40;;;;;;;2.70;2.50;;;12.90;99.90;;;;;;5071663;28;20496;-81
2023/01/07 11:00:13;;;;;;;3.78;2.80;;;13.00;99.90;;;;;;5073935;28;20215;-80
2023/01/07 11:02:44;;;;;;;2.97;2.65;;;12.80;99.90;;;;;;5077443;28;20649;-81
2023/01/07 11:05:12;;;;;;;3.60;2.83;;;12.90;99.90;;;;;;5075086;28;20198;-80
2023/01/07 11:07:43;;;;;;;2.67;2.20;;;12.90;99.90;;;;;;5079623;28;20249;-81
2023/01/07 11:10:17;;;;;;;2.70;2.50;;;12.80;99.90;;;;;;5088094;28;20202;-80
2023/01/07 11:12:48;;;;;;;3.65;2.92;;;12.90;99.90;;;;;;5057584;28;20564;-81
2023/01/07 11:15:19;;;;;;;2.78;2.13;;;12.90;99.90;;;;;;5076560;28;20293;-82
2023/01/07 11:17:52;;;;;;;3.90;2.80;;;12.90;99.90;;;;;;5076265;28;20285;-83
2023/01/07 11:20:48;;;;;;;3.08;2.78;;;12.90;99.90;;;;;;5085667;28;20244;-83
2023/01/07 11:23:35;;;;;;;2.80;2.50;;;12.70;99.90;;;;;;5033455;28;20223;-81
2023/01/07 11:26:18;;;;;;;4.57;2.83;;;12.60;99.90;;;;;;5067283;28;20233;-81
2023/01/07 11:28:56;;;;;;;2.53;2.17;;;12.60;99.90;;;;;;5053661;28;20287;-81
2023/01/07 11:31:42;;;;;;;2.65;2.35;;;12.60;99.90;;;;;;5074737;28;20245;-82
2023/01/07 11:34:19;;;;;;;4.20;2.50;;;12.60;99.90;;;;;;5067730;28;20268;-82
2023/01/07 11:36:45;;;;;;;4.82;3.40;;;12.50;99.90;;;;;;5081271;28;20206;-81
2023/01/07 11:39:20;;;;;;;2.42;2.22;;;12.60;99.90;;;;;;5078538;28;20229;-82
2023/01/07 11:41:57;;;;;;;4.75;3.33;;;12.50;99.90;;;;;;5075799;28;20223;-81
2023/01/07 11:44:25;;;;;;;2.60;2.20;;;12.60;99.90;;;;;;5071433;28;20241;-81
2023/01/07 11:46:52;;;;;;;3.28;1.85;;;12.50;99.90;;;;;;5075547;28;20199;-81
2023/01/07 11:49:23;;;;;;;2.22;2.03;;;12.50;99.90;;;;;;5075174;28;20199;-83
2023/01/07 11:51:50;;;;;;;2.35;2.10;;;12.50;99.90;;;;;;5076032;28;20231;-79
2023/01/07 11:54:21;;;;;;;3.58;2.28;;;12.50;99.90;;;;;;5076542;28;20205;-83
2023/01/07 11:56:48;;;;;;;2.55;1.98;;;12.60;99.90;;;;;;5075461;28;20252;-81
2023/01/07 11:59:29;;;;;;;2.00;1.90;;;12.50;99.90;;;;;;5110081;22;20245;-79
2023/01/07 12:01:59;;;;;;;3.08;2.30;;;12.50;99.90;;;;;;5110738;28;20228;-81
2023/01/07 12:04:28;;;;;;;3.97;2.17;;;12.50;99.90;;;;;;5106892;28;20238;-82
2023/01/07 12:07:00;;;;;;;3.17;2.88;;;12.70;99.90;;;;;;5112597;28;20217;-84
2023/01/07 12:09:35;;;;;;;3.35;2.50;;;12.60;99.90;;;;;;5100514;28;20242;-86
2023/01/07 12:12:30;;;;;;;2.55;1.88;;;12.40;99.90;;;;;;5099239;28;20194;-81
2023/01/07 12:18:41;;;;;;;2.42;2.17;;;12.60;99.90;;;;;;5094786;28;20330;-86
2023/01/07 12:21:39;;;;;;;2.95;1.90;;;12.50;99.90;;;;;;5099205;28;20241;-85
2023/01/07 12:24:41;;;;;;;3.17;1.95;;;12.40;99.90;;;;;;5099384;28;20202;-81
2023/01/07 12:27:20;;;;;;;2.72;2.15;;;12.40;99.90;;;;;;5084713;28;20266;-82
2023/01/07 12:29:57;;;;;;;2.80;1.90;;;12.40;99.90;;;;;;5094182;28;20321;-81
2023/01/07 12:32:40;;;;;;;2.65;2.15;;;12.50;99.90;;;;;;5101248;28;20202;-81
2023/01/07 12:35:13;;;;;;;4.25;1.80;;;12.40;99.90;;;;;;5093075;28;20563;-81
2023/01/07 12:37:49;;;;;;;2.15;1.95;;;12.40;99.90;;;;;;5103366;28;20220;-83
2023/01/07 12:40:28;;;;;;;2.13;1.70;;;12.50;99.90;;;;;;5102323;28;20281;-87
2023/01/07 12:43:00;;;;;;;2.90;2.20;;;12.50;99.90;;;;;;5094486;28;20221;-84
2023/01/07 12:45:30;;;;;;;3.58;3.28;;;12.60;99.90;;;;;;5090889;28;20203;-83
2023/01/07 12:48:03;;;;;;;2.13;1.90;;;12.50;99.90;;;;;;5086186;28;20283;-81
2023/01/07 12:50:38;;;;;;;2.03;1.40;;;12.50;99.90;;;;;;5085564;28;20201;-82
2023/01/07 12:53:12;;;;;;;4.22;2.90;;;12.60;99.90;;;;;;5095776;28;20212;-84
2023/01/07 12:55:44;;;;;;;3.85;2.22;;;12.50;99.90;;;;;;5091095;28;20226;-84
2023/01/07 12:58:17;;;;;;;5.95;1.83;;;12.60;99.90;;;;;;5091666;28;20669;-85
2023/01/07 13:00:50;;;;;;;2.55;1.65;;;12.50;99.90;;;;;;5093363;28;20295;-86